sensor_id;sensor_type;location;lat;lon;timestamp;pressure;altitude;pressure_sealevel;temperature;humidity
70437;BME280;57877;39.750;-104.894;2023-07-08T00:00:27;83844.72;;;21.51;31.01
70437;BME280;57877;39.750;-104.894;2023-07-08T00:02:53;83853.19;;;20.78;34.54
70437;BME280;57877;39.750;-104.894;2023-07-08T00:05:19;83851.03;;;19.82;36.89
70437;BME280;57877;39.750;-104.894;2023-07-08T00:07:43;83859.60;;;19.06;38.74
70437;BME280;57877;39.750;-104.894;2023-07-08T00:10:13;83868.89;;;18.53;40.65
70437;BME280;57877;39.750;-104.894;2023-07-08T00:12:33;83881.47;;;18.95;40.50
70437;BME280;57877;39.750;-104.894;2023-07-08T00:14:58;83895.07;;;18.69;41.21
70437;BME280;57877;39.750;-104.894;2023-07-08T00:17:23;83911.57;;;19.35;40.10
70437;BME280;57877;39.750;-104.894;2023-07-08T00:19:48;83916.71;;;18.95;40.30
70437;BME280;57877;39.750;-104.894;2023-07-08T00:22:14;83922.89;;;19.53;39.14
70437;BME280;57877;39.750;-104.894;2023-07-08T00:24:38;83925.47;;;18.82;42.81
70437;BME280;57877;39.750;-104.894;2023-07-08T00:27:03;83915.13;;;18.21;42.82
70437;BME280;57877;39.750;-104.894;2023-07-08T00:29:28;83909.52;;;17.68;43.54
70437;BME280;57877;39.750;-104.894;2023-07-08T00:31:53;83910.28;;;17.80;44.91
70437;BME280;57877;39.750;-104.894;2023-07-08T00:34:18;83911.77;;;17.37;46.32
70437;BME280;57877;39.750;-104.894;2023-07-08T00:36:43;83924.90;;;18.41;47.91
70437;BME280;57877;39.750;-104.894;2023-07-08T00:39:13;83924.69;;;18.23;47.78
70437;BME280;57877;39.750;-104.894;2023-07-08T00:41:36;83923.72;;;18.58;45.35
70437;BME280;57877;39.750;-104.894;2023-07-08T00:43:59;83926.12;;;18.04;44.94
70437;BME280;57877;39.750;-104.894;2023-07-08T00:46:33;83926.38;;;18.65;47.03
70437;BME280;57877;39.750;-104.894;2023-07-08T00:48:49;83923.57;;;19.25;44.28
70437;BME280;57877;39.750;-104.894;2023-07-08T00:51:22;83928.83;;;19.86;42.79
70437;BME280;57877;39.750;-104.894;2023-07-08T00:53:39;83937.95;;;20.97;41.00
70437;BME280;57877;39.750;-104.894;2023-07-08T00:56:09;83944.65;;;20.22;41.76
70437;BME280;57877;39.750;-104.894;2023-07-08T00:58:33;83948.84;;;20.44;40.75
70437;BME280;57877;39.750;-104.894;2023-07-08T01:00:55;83953.49;;;20.25;40.82
70437;BME280;57877;39.750;-104.894;2023-07-08T01:03:20;83960.91;;;18.51;43.40
70437;BME280;57877;39.750;-104.894;2023-07-08T01:05:44;83963.74;;;19.73;42.28
70437;BME280;57877;39.750;-104.894;2023-07-08T01:08:09;83965.42;;;20.42;40.37
70437;BME280;57877;39.750;-104.894;2023-07-08T01:10:38;83963.62;;;20.09;39.85
70437;BME280;57877;39.750;-104.894;2023-07-08T01:13:02;83962.08;;;20.02;39.57
70437;BME280;57877;39.750;-104.894;2023-07-08T01:15:30;83956.30;;;19.76;40.02
70437;BME280;57877;39.750;-104.894;2023-07-08T01:17:50;83946.16;;;20.41;38.91
70437;BME280;57877;39.750;-104.894;2023-07-08T01:20:15;83944.58;;;19.96;39.14
70437;BME280;57877;39.750;-104.894;2023-07-08T01:22:40;83937.34;;;20.03;39.18
70437;BME280;57877;39.750;-104.894;2023-07-08T01:25:06;83954.44;;;19.41;40.27
70437;BME280;57877;39.750;-104.894;2023-07-08T01:27:32;83970.10;;;20.05;39.19
70437;BME280;57877;39.750;-104.894;2023-07-08T01:29:55;83976.01;;;20.29;38.85
70437;BME280;57877;39.750;-104.894;2023-07-08T01:32:20;83976.91;;;20.10;38.80
70437;BME280;57877;39.750;-104.894;2023-07-08T01:34:46;83968.43;;;19.66;39.38
70437;BME280;57877;39.750;-104.894;2023-07-08T01:37:11;83960.77;;;19.86;39.71
70437;BME280;57877;39.750;-104.894;2023-07-08T01:39:35;83961.94;;;20.06;39.91
70437;BME280;57877;39.750;-104.894;2023-07-08T01:42:00;83967.62;;;19.81;39.22
70437;BME280;57877;39.750;-104.894;2023-07-08T01:44:28;83968.52;;;20.03;38.67
70437;BME280;57877;39.750;-104.894;2023-07-08T01:46:51;83962.04;;;20.32;38.51
70437;BME280;57877;39.750;-104.894;2023-07-08T01:49:16;83960.63;;;20.05;38.80
70437;BME280;57877;39.750;-104.894;2023-07-08T01:51:41;83955.00;;;19.96;38.40
70437;BME280;57877;39.750;-104.894;2023-07-08T01:54:06;83957.63;;;19.37;39.55
70437;BME280;57877;39.750;-104.894;2023-07-08T01:56:31;83968.96;;;19.02;40.08
70437;BME280;57877;39.750;-104.894;2023-07-08T01:58:56;83984.88;;;18.97;40.13
70437;BME280;57877;39.750;-104.894;2023-07-08T02:01:21;83994.80;;;19.23;39.29
70437;BME280;57877;39.750;-104.894;2023-07-08T02:03:46;84005.17;;;19.91;38.65
70437;BME280;57877;39.750;-104.894;2023-07-08T02:06:11;84013.49;;;19.37;39.11
70437;BME280;57877;39.750;-104.894;2023-07-08T02:08:36;84011.30;;;19.13;38.95
70437;BME280;57877;39.750;-104.894;2023-07-08T02:11:01;83992.71;;;19.54;38.39
70437;BME280;57877;39.750;-104.894;2023-07-08T02:13:27;83981.17;;;20.00;37.44
70437;BME280;57877;39.750;-104.894;2023-07-08T02:15:51;83969.17;;;19.65;37.78
70437;BME280;57877;39.750;-104.894;2023-07-08T02:18:16;83978.09;;;18.89;38.91
70437;BME280;57877;39.750;-104.894;2023-07-08T02:20:42;83990.91;;;19.91;37.96
70437;BME280;57877;39.750;-104.894;2023-07-08T02:23:07;84005.09;;;19.59;37.74
70437;BME280;57877;39.750;-104.894;2023-07-08T02:25:32;84017.14;;;19.89;37.49
70437;BME280;57877;39.750;-104.894;2023-07-08T02:27:57;84016.15;;;20.07;37.94
70437;BME280;57877;39.750;-104.894;2023-07-08T02:30:22;84018.21;;;20.09;37.48
70437;BME280;57877;39.750;-104.894;2023-07-08T02:32:47;84021.98;;;20.30;37.71
70437;BME280;57877;39.750;-104.894;2023-07-08T02:35:12;84022.29;;;19.92;37.63
70437;BME280;57877;39.750;-104.894;2023-07-08T02:37:37;84017.15;;;20.20;37.07
70437;BME280;57877;39.750;-104.894;2023-07-08T02:40:02;84006.82;;;20.50;36.61
70437;BME280;57877;39.750;-104.894;2023-07-08T02:42:27;84003.56;;;20.12;36.69
70437;BME280;57877;39.750;-104.894;2023-07-08T02:44:52;84009.44;;;20.23;36.29
70437;BME280;57877;39.750;-104.894;2023-07-08T02:47:17;84015.97;;;20.20;36.23
70437;BME280;57877;39.750;-104.894;2023-07-08T02:49:42;84023.99;;;20.28;36.58
70437;BME280;57877;39.750;-104.894;2023-07-08T02:52:08;84023.84;;;20.28;36.29
70437;BME280;57877;39.750;-104.894;2023-07-08T02:54:33;84022.57;;;19.50;36.50
70437;BME280;57877;39.750;-104.894;2023-07-08T02:56:58;84027.35;;;19.90;36.76
70437;BME280;57877;39.750;-104.894;2023-07-08T02:59:23;84033.31;;;19.51;37.30
70437;BME280;57877;39.750;-104.894;2023-07-08T03:01:48;84037.49;;;19.76;37.15
70437;BME280;57877;39.750;-104.894;2023-07-08T03:04:14;84034.71;;;20.14;37.06
70437;BME280;57877;39.750;-104.894;2023-07-08T03:06:39;84035.48;;;19.77;36.93
70437;BME280;57877;39.750;-104.894;2023-07-08T03:09:03;84046.49;;;20.04;36.92
70437;BME280;57877;39.750;-104.894;2023-07-08T03:11:28;84053.45;;;20.27;36.93
70437;BME280;57877;39.750;-104.894;2023-07-08T03:13:53;84049.55;;;20.49;36.58
70437;BME280;57877;39.750;-104.894;2023-07-08T03:16:18;84049.83;;;20.16;36.78
70437;BME280;57877;39.750;-104.894;2023-07-08T03:18:43;84051.54;;;20.40;36.40
70437;BME280;57877;39.750;-104.894;2023-07-08T03:21:09;84058.58;;;20.52;36.13
70437;BME280;57877;39.750;-104.894;2023-07-08T03:23:33;84063.19;;;20.19;36.64
70437;BME280;57877;39.750;-104.894;2023-07-08T03:25:59;84063.23;;;20.37;36.64
70437;BME280;57877;39.750;-104.894;2023-07-08T03:28:24;84066.80;;;20.25;36.94
70437;BME280;57877;39.750;-104.894;2023-07-08T03:30:53;84077.09;;;20.04;36.76
70437;BME280;57877;39.750;-104.894;2023-07-08T03:33:14;84089.26;;;20.39;36.37
70437;BME280;57877;39.750;-104.894;2023-07-08T03:35:39;84078.51;;;20.44;36.16
70437;BME280;57877;39.750;-104.894;2023-07-08T03:38:04;84068.06;;;20.21;36.43
70437;BME280;57877;39.750;-104.894;2023-07-08T03:40:29;84078.70;;;20.51;37.42
70437;BME280;57877;39.750;-104.894;2023-07-08T03:42:54;84098.95;;;20.48;38.13
70437;BME280;57877;39.750;-104.894;2023-07-08T03:45:19;84105.26;;;20.73;39.11
70437;BME280;57877;39.750;-104.894;2023-07-08T03:47:44;84101.13;;;20.65;41.23
70437;BME280;57877;39.750;-104.894;2023-07-08T03:50:16;84086.95;;;20.25;40.24
70437;BME280;57877;39.750;-104.894;2023-07-08T03:52:34;84090.42;;;20.32;39.43
70437;BME280;57877;39.750;-104.894;2023-07-08T03:55:00;84102.09;;;19.78;39.85
70437;BME280;57877;39.750;-104.894;2023-07-08T03:57:25;84104.92;;;20.04;40.24
70437;BME280;57877;39.750;-104.894;2023-07-08T03:59:50;84105.00;;;20.36;40.03
70437;BME280;57877;39.750;-104.894;2023-07-08T04:02:15;84111.37;;;20.29;40.11
70437;BME280;57877;39.750;-104.894;2023-07-08T04:04:40;84119.35;;;20.38;40.75
70437;BME280;57877;39.750;-104.894;2023-07-08T04:07:06;84121.70;;;20.54;40.80
70437;BME280;57877;39.750;-104.894;2023-07-08T04:09:30;84118.50;;;19.93;41.39
70437;BME280;57877;39.750;-104.894;2023-07-08T04:11:55;84109.75;;;20.21;41.15
70437;BME280;57877;39.750;-104.894;2023-07-08T04:14:20;84100.01;;;20.10;41.73
70437;BME280;57877;39.750;-104.894;2023-07-08T04:16:49;84090.44;;;19.95;41.14
70437;BME280;57877;39.750;-104.894;2023-07-08T04:19:10;84084.85;;;20.02;41.43
70437;BME280;57877;39.750;-104.894;2023-07-08T04:21:35;84087.56;;;20.01;42.52
70437;BME280;57877;39.750;-104.894;2023-07-08T04:24:01;84104.40;;;20.23;41.84
70437;BME280;57877;39.750;-104.894;2023-07-08T04:26:26;84111.74;;;20.11;42.35
70437;BME280;57877;39.750;-104.894;2023-07-08T04:28:51;84111.05;;;20.34;41.72
70437;BME280;57877;39.750;-104.894;2023-07-08T04:31:16;84098.87;;;19.93;40.90
70437;BME280;57877;39.750;-104.894;2023-07-08T04:33:42;84085.69;;;19.54;42.24
70437;BME280;57877;39.750;-104.894;2023-07-08T04:36:11;84078.67;;;19.04;42.60
70437;BME280;57877;39.750;-104.894;2023-07-08T04:38:31;84085.34;;;18.82;44.04
70437;BME280;57877;39.750;-104.894;2023-07-08T04:40:56;84080.85;;;18.37;45.89
70437;BME280;57877;39.750;-104.894;2023-07-08T04:43:22;84069.27;;;18.97;44.46
70437;BME280;57877;39.750;-104.894;2023-07-08T04:45:48;84066.36;;;19.16;44.17
70437;BME280;57877;39.750;-104.894;2023-07-08T04:48:13;84064.91;;;19.20;44.14
70437;BME280;57877;39.750;-104.894;2023-07-08T04:50:36;84063.81;;;19.01;44.97
70437;BME280;57877;39.750;-104.894;2023-07-08T04:53:01;84072.53;;;18.82;45.08
70437;BME280;57877;39.750;-104.894;2023-07-08T04:55:26;84088.47;;;19.03;44.45
70437;BME280;57877;39.750;-104.894;2023-07-08T04:57:51;84103.42;;;19.77;44.44
70437;BME280;57877;39.750;-104.894;2023-07-08T05:00:17;84111.27;;;19.74;44.26
70437;BME280;57877;39.750;-104.894;2023-07-08T05:02:42;84109.98;;;19.50;44.91
70437;BME280;57877;39.750;-104.894;2023-07-08T05:05:07;84096.72;;;19.08;44.70
70437;BME280;57877;39.750;-104.894;2023-07-08T05:07:32;84084.12;;;19.36;44.94
70437;BME280;57877;39.750;-104.894;2023-07-08T05:09:57;84079.56;;;19.77;45.47
70437;BME280;57877;39.750;-104.894;2023-07-08T05:12:22;84074.28;;;19.42;47.53
70437;BME280;57877;39.750;-104.894;2023-07-08T05:14:47;84060.40;;;19.03;49.09
70437;BME280;57877;39.750;-104.894;2023-07-08T05:17:12;84051.07;;;19.10;50.19
70437;BME280;57877;39.750;-104.894;2023-07-08T05:19:37;84048.06;;;19.20;49.76
70437;BME280;57877;39.750;-104.894;2023-07-08T05:22:02;84056.25;;;19.28;49.13
70437;BME280;57877;39.750;-104.894;2023-07-08T05:24:27;84067.26;;;19.50;48.60
70437;BME280;57877;39.750;-104.894;2023-07-08T05:26:52;84081.59;;;19.22;48.36
70437;BME280;57877;39.750;-104.894;2023-07-08T05:29:17;84088.26;;;18.96;48.36
70437;BME280;57877;39.750;-104.894;2023-07-08T05:31:42;84091.45;;;18.89;48.46
70437;BME280;57877;39.750;-104.894;2023-07-08T05:34:07;84090.52;;;18.96;48.81
70437;BME280;57877;39.750;-104.894;2023-07-08T05:36:32;84086.29;;;18.62;49.02
70437;BME280;57877;39.750;-104.894;2023-07-08T05:38:58;84082.57;;;18.78;48.98
70437;BME280;57877;39.750;-104.894;2023-07-08T05:41:23;84079.27;;;18.55;48.68
70437;BME280;57877;39.750;-104.894;2023-07-08T05:43:48;84089.00;;;18.88;48.83
70437;BME280;57877;39.750;-104.894;2023-07-08T05:46:13;84094.37;;;18.77;48.73
70437;BME280;57877;39.750;-104.894;2023-07-08T05:48:38;84091.77;;;18.64;48.42
70437;BME280;57877;39.750;-104.894;2023-07-08T05:51:03;84086.41;;;19.20;48.60
70437;BME280;57877;39.750;-104.894;2023-07-08T05:53:28;84075.41;;;19.18;49.05
70437;BME280;57877;39.750;-104.894;2023-07-08T05:55:53;84054.82;;;17.52;51.09
70437;BME280;57877;39.750;-104.894;2023-07-08T05:58:18;84025.99;;;18.21;50.25
70437;BME280;57877;39.750;-104.894;2023-07-08T06:00:44;83994.30;;;18.26;51.68
70437;BME280;57877;39.750;-104.894;2023-07-08T06:03:08;83986.12;;;18.54;50.74
70437;BME280;57877;39.750;-104.894;2023-07-08T06:05:33;84016.98;;;18.33;50.01
70437;BME280;57877;39.750;-104.894;2023-07-08T06:07:58;84046.08;;;18.84;49.41
70437;BME280;57877;39.750;-104.894;2023-07-08T06:10:23;84052.56;;;18.95;49.01
70437;BME280;57877;39.750;-104.894;2023-07-08T06:12:48;84048.83;;;18.94;49.37
70437;BME280;57877;39.750;-104.894;2023-07-08T06:15:13;84049.41;;;19.39;48.69
70437;BME280;57877;39.750;-104.894;2023-07-08T06:17:38;84050.64;;;19.32;48.32
70437;BME280;57877;39.750;-104.894;2023-07-08T06:20:04;84048.28;;;19.10;48.01
70437;BME280;57877;39.750;-104.894;2023-07-08T06:22:28;84043.65;;;18.99;47.14
70437;BME280;57877;39.750;-104.894;2023-07-08T06:24:53;84059.30;;;19.27;47.50
70437;BME280;57877;39.750;-104.894;2023-07-08T06:27:18;84071.60;;;19.04;48.06
70437;BME280;57877;39.750;-104.894;2023-07-08T06:29:44;84072.06;;;18.88;48.17
70437;BME280;57877;39.750;-104.894;2023-07-08T06:32:09;84068.32;;;18.52;47.71
70437;BME280;57877;39.750;-104.894;2023-07-08T06:34:34;84069.70;;;18.99;47.18
70437;BME280;57877;39.750;-104.894;2023-07-08T06:36:59;84076.99;;;18.88;47.44
70437;BME280;57877;39.750;-104.894;2023-07-08T06:39:24;84085.74;;;19.10;47.57
70437;BME280;57877;39.750;-104.894;2023-07-08T06:41:49;84094.58;;;18.94;47.80
70437;BME280;57877;39.750;-104.894;2023-07-08T06:44:14;84102.54;;;19.01;47.52
70437;BME280;57877;39.750;-104.894;2023-07-08T06:46:39;84104.40;;;19.22;47.47
70437;BME280;57877;39.750;-104.894;2023-07-08T06:49:04;84107.42;;;19.00;47.08
70437;BME280;57877;39.750;-104.894;2023-07-08T06:51:29;84118.27;;;18.92;47.47
70437;BME280;57877;39.750;-104.894;2023-07-08T06:53:55;84124.38;;;19.09;47.24
70437;BME280;57877;39.750;-104.894;2023-07-08T06:56:21;84123.79;;;19.03;47.32
70437;BME280;57877;39.750;-104.894;2023-07-08T06:58:47;84119.32;;;18.95;47.72
70437;BME280;57877;39.750;-104.894;2023-07-08T07:01:13;84114.20;;;19.30;47.51
70437;BME280;57877;39.750;-104.894;2023-07-08T07:03:40;84112.66;;;18.82;47.60
70437;BME280;57877;39.750;-104.894;2023-07-08T07:06:05;84105.70;;;18.79;47.46
70437;BME280;57877;39.750;-104.894;2023-07-08T07:08:31;84103.52;;;18.73;46.74
70437;BME280;57877;39.750;-104.894;2023-07-08T07:10:57;84102.46;;;19.18;46.61
70437;BME280;57877;39.750;-104.894;2023-07-08T07:13:23;84097.99;;;18.85;47.30
70437;BME280;57877;39.750;-104.894;2023-07-08T07:15:49;84097.60;;;19.23;46.54
70437;BME280;57877;39.750;-104.894;2023-07-08T07:18:15;84102.04;;;19.02;46.67
70437;BME280;57877;39.750;-104.894;2023-07-08T07:20:48;84103.86;;;19.16;47.22
70437;BME280;57877;39.750;-104.894;2023-07-08T07:23:07;84101.08;;;19.13;47.37
70437;BME280;57877;39.750;-104.894;2023-07-08T07:25:34;84101.92;;;19.36;47.15
70437;BME280;57877;39.750;-104.894;2023-07-08T07:27:58;84100.13;;;19.14;47.40
70437;BME280;57877;39.750;-104.894;2023-07-08T07:30:24;84092.98;;;18.87;48.09
70437;BME280;57877;39.750;-104.894;2023-07-08T07:32:50;84092.65;;;19.45;47.21
70437;BME280;57877;39.750;-104.894;2023-07-08T07:35:16;84095.38;;;19.13;46.09
70437;BME280;57877;39.750;-104.894;2023-07-08T07:37:43;84101.26;;;19.37;46.69
70437;BME280;57877;39.750;-104.894;2023-07-08T07:40:10;84100.82;;;19.17;46.51
70437;BME280;57877;39.750;-104.894;2023-07-08T07:42:34;84097.69;;;19.46;46.68
70437;BME280;57877;39.750;-104.894;2023-07-08T07:45:00;84097.50;;;19.24;46.92
70437;BME280;57877;39.750;-104.894;2023-07-08T07:47:26;84095.05;;;19.30;46.83
70437;BME280;57877;39.750;-104.894;2023-07-08T07:49:52;84085.97;;;19.19;47.08
70437;BME280;57877;39.750;-104.894;2023-07-08T07:52:18;84077.76;;;19.49;46.73
70437;BME280;57877;39.750;-104.894;2023-07-08T07:54:44;84079.89;;;18.99;47.45
70437;BME280;57877;39.750;-104.894;2023-07-08T07:57:10;84078.17;;;19.41;47.29
70437;BME280;57877;39.750;-104.894;2023-07-08T07:59:36;84077.90;;;19.37;47.56
70437;BME280;57877;39.750;-104.894;2023-07-08T08:02:03;84069.33;;;19.34;47.04
70437;BME280;57877;39.750;-104.894;2023-07-08T08:04:28;84064.80;;;19.08;47.82
70437;BME280;57877;39.750;-104.894;2023-07-08T08:06:54;84065.08;;;19.58;47.10
70437;BME280;57877;39.750;-104.894;2023-07-08T08:09:20;84063.89;;;19.24;47.33
70437;BME280;57877;39.750;-104.894;2023-07-08T08:11:46;84061.00;;;19.28;47.58
70437;BME280;57877;39.750;-104.894;2023-07-08T08:14:13;84060.81;;;19.39;46.84
70437;BME280;57877;39.750;-104.894;2023-07-08T08:16:39;84062.39;;;19.43;46.83
70437;BME280;57877;39.750;-104.894;2023-07-08T08:19:05;84059.42;;;19.33;46.80
70437;BME280;57877;39.750;-104.894;2023-07-08T08:21:29;84053.73;;;19.31;46.52
70437;BME280;57877;39.750;-104.894;2023-07-08T08:23:55;84041.98;;;19.35;47.22
70437;BME280;57877;39.750;-104.894;2023-07-08T08:26:21;84034.69;;;19.15;47.24
70437;BME280;57877;39.750;-104.894;2023-07-08T08:28:48;84034.23;;;19.36;47.09
70437;BME280;57877;39.750;-104.894;2023-07-08T08:31:14;84036.13;;;19.54;46.10
70437;BME280;57877;39.750;-104.894;2023-07-08T08:33:40;84038.68;;;19.32;45.72
70437;BME280;57877;39.750;-104.894;2023-07-08T08:36:06;84044.39;;;19.29;45.70
70437;BME280;57877;39.750;-104.894;2023-07-08T08:38:32;84042.55;;;19.30;45.91
70437;BME280;57877;39.750;-104.894;2023-07-08T08:40:57;84038.00;;;19.16;45.66
70437;BME280;57877;39.750;-104.894;2023-07-08T08:43:26;84034.44;;;19.21;45.92
70437;BME280;57877;39.750;-104.894;2023-07-08T08:45:57;84032.41;;;18.82;46.65
70437;BME280;57877;39.750;-104.894;2023-07-08T08:48:17;84026.36;;;19.08;45.94
70437;BME280;57877;39.750;-104.894;2023-07-08T08:50:44;84028.95;;;18.97;46.04
70437;BME280;57877;39.750;-104.894;2023-07-08T08:53:12;84026.92;;;18.99;46.61
70437;BME280;57877;39.750;-104.894;2023-07-08T08:55:32;84025.41;;;18.73;47.44
70437;BME280;57877;39.750;-104.894;2023-07-08T08:58:07;84032.11;;;18.76;47.69
70437;BME280;57877;39.750;-104.894;2023-07-08T09:00:27;84035.66;;;18.88;47.88
70437;BME280;57877;39.750;-104.894;2023-07-08T09:02:53;84037.85;;;18.71;47.19
70437;BME280;57877;39.750;-104.894;2023-07-08T09:05:13;84046.21;;;18.51;46.78
70437;BME280;57877;39.750;-104.894;2023-07-08T09:07:44;84045.49;;;18.95;47.48
70437;BME280;57877;39.750;-104.894;2023-07-08T09:10:04;84035.21;;;18.17;48.77
70437;BME280;57877;39.750;-104.894;2023-07-08T09:12:28;84035.84;;;18.71;47.86
70437;BME280;57877;39.750;-104.894;2023-07-08T09:14:52;84033.35;;;19.00;47.55
70437;BME280;57877;39.750;-104.894;2023-07-08T09:17:21;84031.68;;;18.99;47.22
70437;BME280;57877;39.750;-104.894;2023-07-08T09:19:45;84029.17;;;19.08;46.51
70437;BME280;57877;39.750;-104.894;2023-07-08T09:22:14;84025.56;;;18.45;46.77
70437;BME280;57877;39.750;-104.894;2023-07-08T09:24:37;84026.60;;;19.15;46.17
70437;BME280;57877;39.750;-104.894;2023-07-08T09:27:01;84028.91;;;19.21;45.27
70437;BME280;57877;39.750;-104.894;2023-07-08T09:29:24;84033.75;;;18.93;44.46
70437;BME280;57877;39.750;-104.894;2023-07-08T09:31:50;84036.94;;;19.57;44.35
70437;BME280;57877;39.750;-104.894;2023-07-08T09:34:19;84036.02;;;19.11;44.61
70437;BME280;57877;39.750;-104.894;2023-07-08T09:36:44;84031.53;;;19.28;44.67
70437;BME280;57877;39.750;-104.894;2023-07-08T09:39:11;84031.48;;;19.23;45.18
70437;BME280;57877;39.750;-104.894;2023-07-08T09:41:35;84036.59;;;19.10;44.78
70437;BME280;57877;39.750;-104.894;2023-07-08T09:46:25;84032.11;;;19.47;44.68
70437;BME280;57877;39.750;-104.894;2023-07-08T09:48:51;84034.63;;;19.24;44.70
70437;BME280;57877;39.750;-104.894;2023-07-08T09:51:16;84037.27;;;19.28;44.74
70437;BME280;57877;39.750;-104.894;2023-07-08T09:53:41;84038.19;;;19.51;44.81
70437;BME280;57877;39.750;-104.894;2023-07-08T09:56:09;84036.97;;;19.30;44.55
70437;BME280;57877;39.750;-104.894;2023-07-08T09:58:35;84035.74;;;19.24;44.86
70437;BME280;57877;39.750;-104.894;2023-07-08T10:01:02;84034.85;;;19.70;44.64
70437;BME280;57877;39.750;-104.894;2023-07-08T10:03:26;84035.19;;;19.20;44.60
70437;BME280;57877;39.750;-104.894;2023-07-08T10:05:51;84034.10;;;19.03;44.66
70437;BME280;57877;39.750;-104.894;2023-07-08T10:08:17;84031.47;;;19.31;44.90
70437;BME280;57877;39.750;-104.894;2023-07-08T10:10:39;84026.07;;;19.23;44.90
70437;BME280;57877;39.750;-104.894;2023-07-08T10:13:06;84026.50;;;19.60;45.17
70437;BME280;57877;39.750;-104.894;2023-07-08T10:15:35;84026.17;;;19.60;45.11
70437;BME280;57877;39.750;-104.894;2023-07-08T10:17:55;84025.77;;;19.44;45.12
70437;BME280;57877;39.750;-104.894;2023-07-08T10:20:22;84027.68;;;19.41;45.40
70437;BME280;57877;39.750;-104.894;2023-07-08T10:22:56;84028.80;;;19.40;44.48
70437;BME280;57877;39.750;-104.894;2023-07-08T10:25:32;84033.46;;;19.34;43.01
70437;BME280;57877;39.750;-104.894;2023-07-08T10:27:40;84036.74;;;19.41;43.74
70437;BME280;57877;39.750;-104.894;2023-07-08T10:30:14;84039.15;;;19.49;43.79
70437;BME280;57877;39.750;-104.894;2023-07-08T10:32:37;84042.28;;;19.66;43.63
70437;BME280;57877;39.750;-104.894;2023-07-08T10:34:57;84041.35;;;19.18;43.76
70437;BME280;57877;39.750;-104.894;2023-07-08T10:37:25;84042.00;;;19.25;44.10
70437;BME280;57877;39.750;-104.894;2023-07-08T10:42:15;84040.57;;;19.11;44.41
70437;BME280;57877;39.750;-104.894;2023-07-08T10:44:37;84040.82;;;19.30;44.54
70437;BME280;57877;39.750;-104.894;2023-07-08T10:47:06;84040.53;;;19.58;44.48
70437;BME280;57877;39.750;-104.894;2023-07-08T10:49:34;84045.22;;;19.62;44.54
70437;BME280;57877;39.750;-104.894;2023-07-08T10:52:00;84048.59;;;19.40;44.57
70437;BME280;57877;39.750;-104.894;2023-07-08T10:54:36;84050.11;;;19.39;44.61
70437;BME280;57877;39.750;-104.894;2023-07-08T10:56:43;84050.53;;;19.37;44.75
70437;BME280;57877;39.750;-104.894;2023-07-08T10:59:19;84047.58;;;19.38;44.56
70437;BME280;57877;39.750;-104.894;2023-07-08T11:01:36;84045.36;;;19.60;44.31
70437;BME280;57877;39.750;-104.894;2023-07-08T11:04:02;84043.21;;;19.22;44.27
70437;BME280;57877;39.750;-104.894;2023-07-08T11:06:22;84040.25;;;19.30;43.63
70437;BME280;57877;39.750;-104.894;2023-07-08T11:08:47;84037.47;;;19.36;43.25
70437;BME280;57877;39.750;-104.894;2023-07-08T11:11:15;84031.43;;;19.04;43.88
70437;BME280;57877;39.750;-104.894;2023-07-08T11:13:36;84022.68;;;18.18;44.00
70437;BME280;57877;39.750;-104.894;2023-07-08T11:16:02;84020.75;;;18.44;43.97
70437;BME280;57877;39.750;-104.894;2023-07-08T11:18:28;84023.00;;;18.58;43.85
70437;BME280;57877;39.750;-104.894;2023-07-08T11:20:55;84021.18;;;18.27;44.54
70437;BME280;57877;39.750;-104.894;2023-07-08T11:23:22;84014.32;;;18.73;43.84
70437;BME280;57877;39.750;-104.894;2023-07-08T11:25:40;84018.17;;;18.62;43.43
70437;BME280;57877;39.750;-104.894;2023-07-08T11:28:06;84018.19;;;18.53;43.85
70437;BME280;57877;39.750;-104.894;2023-07-08T11:30:31;84016.74;;;18.97;43.34
70437;BME280;57877;39.750;-104.894;2023-07-08T11:33:00;84014.44;;;18.64;43.34
70437;BME280;57877;39.750;-104.894;2023-07-08T11:35:23;84016.81;;;19.20;42.83
70437;BME280;57877;39.750;-104.894;2023-07-08T11:37:45;84015.40;;;18.58;43.05
70437;BME280;57877;39.750;-104.894;2023-07-08T11:40:18;84015.70;;;18.42;42.89
70437;BME280;57877;39.750;-104.894;2023-07-08T11:42:38;84017.83;;;18.62;42.90
70437;BME280;57877;39.750;-104.894;2023-07-08T11:45:00;84020.20;;;18.85;43.22
70437;BME280;57877;39.750;-104.894;2023-07-08T11:47:32;84019.14;;;17.96;43.71
70437;BME280;57877;39.750;-104.894;2023-07-08T11:49:51;84019.71;;;18.92;43.18
70437;BME280;57877;39.750;-104.894;2023-07-08T11:52:18;84021.25;;;19.12;43.30
70437;BME280;57877;39.750;-104.894;2023-07-08T11:54:46;84024.98;;;19.05;43.69
70437;BME280;57877;39.750;-104.894;2023-07-08T11:57:06;84026.90;;;19.27;43.76
70437;BME280;57877;39.750;-104.894;2023-07-08T11:59:32;84026.31;;;19.37;43.39
70437;BME280;57877;39.750;-104.894;2023-07-08T12:02:02;84024.75;;;19.11;43.57
70437;BME280;57877;39.750;-104.894;2023-07-08T12:04:27;84023.71;;;19.07;43.56
70437;BME280;57877;39.750;-104.894;2023-07-08T12:06:48;84023.76;;;19.45;43.68
70437;BME280;57877;39.750;-104.894;2023-07-08T12:09:16;84021.56;;;18.96;43.11
70437;BME280;57877;39.750;-104.894;2023-07-08T12:11:35;84023.56;;;19.45;43.48
70437;BME280;57877;39.750;-104.894;2023-07-08T12:14:02;84024.41;;;19.06;43.26
70437;BME280;57877;39.750;-104.894;2023-07-08T12:16:25;84026.51;;;18.68;43.89
70437;BME280;57877;39.750;-104.894;2023-07-08T12:18:50;84031.36;;;19.02;43.90
70437;BME280;57877;39.750;-104.894;2023-07-08T12:21:15;84028.53;;;19.29;43.62
70437;BME280;57877;39.750;-104.894;2023-07-08T12:23:45;84027.07;;;18.89;43.89